Terminal Aerodrome Forecast
Issued by NWS

Home | Current Version | Previous Version | Graphics & Text | Print | Product List | Glossary On
Versions: 1 2 3 4 5 6 7 8 9 10 11 12 13 14 15 16 17 18 19 20 21 22 23
000
FTUS43 KDLH 170100 AAA
TAFBRD
TAF AMD
KBRD 170102Z 1701/1724 04017G23KT 4SM -SN BKN015 OVC025
      TEMPO 1701/1703 6SM -SN BLSN SCT015 OVC025
     FM170300 03015G21KT 6SM -SN BKN025
     FM170600 02012G18KT P6SM BKN028
     FM171500 35010KT P6SM SCT035=

USA.gov is the U.S. government's official web portal to all federal, state and local government web resources and services.